Time;durP1;ratioP1;P1;durP2;ratioP2;P2;SDS_P1;SDS_P2;PMS_P1;PMS_P2;Temp;Humidity;BMP_temperature;BMP_pressure;BME280_temperature;BME280_humidity;BME280_pressure;Samples;Min_cycle;Max_cycle;Signal;HPM_P1;HPM_P2
2021/06/07 00:01:21;;;;;;;2.65;1.13;;;;;;;;;;5065452;28;20052;-52
2021/06/07 00:03:47;;;;;;;2.33;1.30;;;;;;;;;;5096468;28;20040;-51
2021/06/07 00:06:13;;;;;;;5.05;1.38;;;;;;;;;;5098667;28;20028;-56
2021/06/07 00:08:43;;;;;;;5.10;1.48;;;;;;;;;;5064594;28;20036;-51
2021/06/07 00:11:09;;;;;;;3.20;1.50;;;;;;;;;;5060444;28;20048;-51
2021/06/07 00:13:36;;;;;;;1.85;1.30;;;;;;;;;;5065655;28;20089;-54
2021/06/07 00:16:03;;;;;;;3.33;1.40;;;;;;;;;;5061304;28;20040;-54
2021/06/07 00:18:29;;;;;;;3.33;1.48;;;;;;;;;;5065169;28;20036;-54
2021/06/07 00:20:57;;;;;;;2.97;1.40;;;;;;;;;;5060154;28;20047;-55
2021/06/07 00:23:23;;;;;;;2.90;1.48;;;;;;;;;;5099023;28;20056;-53
2021/06/07 00:25:52;;;;;;;5.57;1.67;;;;;;;;;;5061680;28;20044;-55
2021/06/07 00:28:19;;;;;;;2.28;1.13;;;;;;;;;;5098730;28;20040;-56
2021/06/07 00:30:45;;;;;;;4.13;1.45;;;;;;;;;;5061223;28;20037;-50
2021/06/07 00:33:11;;;;;;;2.78;1.40;;;;;;;;;;5082058;28;20109;-52
2021/06/07 00:35:37;;;;;;;3.92;1.40;;;;;;;;;;5061700;28;20040;-53
2021/06/07 00:38:03;;;;;;;5.70;1.40;;;;;;;;;;5082407;28;20035;-53
2021/06/07 00:40:29;;;;;;;2.88;1.38;;;;;;;;;;5094920;28;20101;-54
2021/06/07 00:42:57;;;;;;;3.72;1.23;;;;;;;;;;5082755;28;20052;-54
2021/06/07 00:45:25;;;;;;;4.32;1.73;;;;;;;;;;5061409;28;20049;-54
2021/06/07 00:47:51;;;;;;;3.67;1.33;;;;;;;;;;5063464;28;20036;-56
2021/06/07 00:50:22;;;;;;;2.83;1.38;;;;;;;;;;5065240;28;20036;-56
2021/06/07 00:53:01;;;;;;;2.72;1.25;;;;;;;;;;5093335;28;20125;-54
2021/06/07 00:55:27;;;;;;;4.00;1.38;;;;;;;;;;5066818;28;20054;-52
2021/06/07 00:57:54;;;;;;;2.90;1.35;;;;;;;;;;5098869;27;20053;-51
2021/06/07 01:00:22;;;;;;;4.40;1.58;;;;;;;;;;5101166;28;20088;-52
2021/06/07 01:02:48;;;;;;;4.75;1.38;;;;;;;;;;5063210;28;20073;-58
2021/06/07 01:05:14;;;;;;;2.67;1.23;;;;;;;;;;5068326;28;20055;-56
2021/06/07 01:07:40;;;;;;;3.65;1.35;;;;;;;;;;5097268;28;20081;-56
2021/06/07 01:10:07;;;;;;;8.32;1.48;;;;;;;;;;5064184;28;20036;-53
2021/06/07 01:12:33;;;;;;;3.72;1.40;;;;;;;;;;5072240;28;20121;-54
2021/06/07 01:14:59;;;;;;;4.18;1.40;;;;;;;;;;5100423;28;20056;-52
2021/06/07 01:17:27;;;;;;;2.88;1.45;;;;;;;;;;5098086;28;20032;-51
2021/06/07 01:19:53;;;;;;;5.47;1.50;;;;;;;;;;5067278;28;20117;-56
2021/06/07 01:22:20;;;;;;;5.60;1.70;;;;;;;;;;5098247;28;20032;-50
2021/06/07 01:24:46;;;;;;;1.95;1.30;;;;;;;;;;5068651;28;20052;-56
2021/06/07 01:27:13;;;;;;;2.97;1.38;;;;;;;;;;5082689;28;20033;-54
2021/06/07 01:29:39;;;;;;;3.40;1.50;;;;;;;;;;5101518;28;20059;-54
2021/06/07 01:32:05;;;;;;;2.85;1.40;;;;;;;;;;5067722;28;20051;-57
2021/06/07 01:34:31;;;;;;;6.68;1.65;;;;;;;;;;5062565;28;20048;-54
2021/06/07 01:36:58;;;;;;;6.25;1.65;;;;;;;;;;5064130;28;20052;-51
2021/06/07 01:39:27;;;;;;;5.10;1.73;;;;;;;;;;5060978;28;20029;-52
2021/06/07 01:41:54;;;;;;;2.70;1.30;;;;;;;;;;5062711;28;20041;-52
2021/06/07 01:44:19;;;;;;;7.07;1.85;;;;;;;;;;5060905;28;20055;-54
2021/06/07 01:46:45;;;;;;;5.97;1.55;;;;;;;;;;5062801;28;20077;-50
2021/06/07 01:49:13;;;;;;;3.25;1.55;;;;;;;;;;5060881;28;20037;-56
2021/06/07 01:51:39;;;;;;;4.80;1.70;;;;;;;;;;5063659;28;20041;-58
2021/06/07 01:54:05;;;;;;;4.70;1.50;;;;;;;;;;5076535;28;20118;-53
2021/06/07 01:56:33;;;;;;;3.72;1.40;;;;;;;;;;5064018;28;20122;-53
2021/06/07 01:58:59;;;;;;;5.40;1.55;;;;;;;;;;5060052;28;20055;-51
2021/06/07 02:01:25;;;;;;;3.47;1.50;;;;;;;;;;5057751;28;20044;-51
2021/06/07 02:03:51;;;;;;;5.88;1.60;;;;;;;;;;5060305;28;20118;-57
2021/06/07 02:06:18;;;;;;;4.28;1.65;;;;;;;;;;5079984;28;20055;-55
2021/06/07 02:08:44;;;;;;;2.90;1.58;;;;;;;;;;5075238;28;20041;-57
2021/06/07 02:11:12;;;;;;;2.97;1.42;;;;;;;;;;5078294;28;20040;-53
2021/06/07 02:13:40;;;;;;;5.57;1.75;;;;;;;;;;5078583;28;20056;-54
2021/06/07 02:16:08;;;;;;;2.92;1.60;;;;;;;;;;5058444;28;20057;-52
2021/06/07 02:18:36;;;;;;;2.37;1.60;;;;;;;;;;5064400;28;20045;-55
2021/06/07 02:21:02;;;;;;;3.17;1.60;;;;;;;;;;5075502;28;20044;-56
2021/06/07 02:23:28;;;;;;;4.85;1.75;;;;;;;;;;5064756;28;20044;-56
2021/06/07 02:25:57;;;;;;;3.35;1.58;;;;;;;;;;5057325;28;20052;-50
2021/06/07 02:28:24;;;;;;;;;;;;;;;;;;5059505;28;20049;-56
2021/06/07 02:30:51;;;;;;;7.10;1.55;;;;;;;;;;5067316;28;19940;-53
2021/06/07 02:33:17;;;;;;;3.22;1.60;;;;;;;;;;5063041;28;20118;-53
2021/06/07 02:35:43;;;;;;;5.50;1.80;;;;;;;;;;5060375;28;20088;-50
2021/06/07 02:38:11;;;;;;;3.13;1.48;;;;;;;;;;5077694;28;20093;-56
2021/06/07 02:40:38;;;;;;;2.85;1.67;;;;;;;;;;5081031;28;20040;-50
2021/06/07 02:43:04;;;;;;;6.07;1.67;;;;;;;;;;5086181;28;20044;-55
2021/06/07 02:45:30;;;;;;;4.00;1.90;;;;;;;;;;5064697;28;20051;-56
2021/06/07 02:47:59;;;;;;;4.68;1.70;;;;;;;;;;5084783;28;20040;-54
2021/06/07 02:50:27;;;;;;;2.88;1.55;;;;;;;;;;5063399;28;20051;-54
2021/06/07 02:52:53;;;;;;;3.83;1.88;;;;;;;;;;5067159;28;20036;-55
2021/06/07 02:55:20;;;;;;;3.22;1.60;;;;;;;;;;5067190;28;20051;-54
2021/06/07 02:57:47;;;;;;;4.43;2.10;;;;;;;;;;5064323;28;20040;-55
2021/06/07 03:00:14;;;;;;;9.63;2.10;;;;;;;;;;5067602;28;20036;-57
2021/06/07 03:02:40;;;;;;;4.82;1.90;;;;;;;;;;5063082;28;20059;-54
2021/06/07 03:05:09;;;;;;;5.53;2.05;;;;;;;;;;5100703;28;20041;-55
2021/06/07 03:07:35;;;;;;;3.92;1.73;;;;;;;;;;5063046;28;20062;-53
2021/06/07 03:10:01;;;;;;;7.72;2.20;;;;;;;;;;5065319;28;20040;-49
2021/06/07 03:12:27;;;;;;;5.95;2.17;;;;;;;;;;5095898;28;20036;-54
2021/06/07 03:14:53;;;;;;;5.78;2.10;;;;;;;;;;5066965;28;20085;-52
2021/06/07 03:17:19;;;;;;;6.07;2.13;;;;;;;;;;5062205;28;20055;-51
2021/06/07 03:19:46;;;;;;;5.38;1.92;;;;;;;;;;5064907;28;20040;-54
2021/06/07 03:22:13;;;;;;;3.33;1.48;;;;;;;;;;5063128;28;20121;-51
2021/06/07 03:24:39;;;;;;;3.95;1.80;;;;;;;;;;5083999;28;20040;-50
2021/06/07 03:27:06;;;;;;;3.13;1.75;;;;;;;;;;5062480;28;20044;-53
2021/06/07 03:29:31;;;;;;;5.93;2.10;;;;;;;;;;5098956;28;20044;-54
2021/06/07 03:31:58;;;;;;;5.70;2.28;;;;;;;;;;5062406;28;20047;-54
2021/06/07 03:34:24;;;;;;;7.28;2.10;;;;;;;;;;5066442;28;20051;-57
2021/06/07 03:36:50;;;;;;;5.38;2.05;;;;;;;;;;5065900;28;20056;-51
2021/06/07 03:39:17;;;;;;;4.38;2.03;;;;;;;;;;5094101;28;20052;-52
2021/06/07 03:41:43;;;;;;;7.70;2.00;;;;;;;;;;5099956;28;20048;-52
2021/06/07 03:44:09;;;;;;;4.18;1.95;;;;;;;;;;5095083;28;20044;-54
2021/06/07 03:46:35;;;;;;;5.60;2.13;;;;;;;;;;5066352;28;20032;-50
2021/06/07 03:49:02;;;;;;;6.05;1.83;;;;;;;;;;5096326;28;20056;-51
2021/06/07 03:51:30;;;;;;;8.35;2.60;;;;;;;;;;5098134;28;20036;-49
2021/06/07 03:53:55;;;;;;;7.93;1.90;;;;;;;;;;5096264;28;20044;-52
2021/06/07 03:56:23;;;;;;;4.47;1.77;;;;;;;;;;5100314;28;20051;-54
2021/06/07 03:58:49;;;;;;;7.07;2.33;;;;;;;;;;5096547;28;20040;-55
2021/06/07 04:01:15;;;;;;;10.30;2.08;;;;;;;;;;5096949;28;20036;-53
2021/06/07 04:03:41;;;;;;;7.53;2.20;;;;;;;;;;5094061;28;20036;-49
2021/06/07 04:06:07;;;;;;;3.85;2.00;;;;;;;;;;5098753;28;20044;-57
2021/06/07 04:08:33;;;;;;;7.25;2.22;;;;;;;;;;5095768;28;20086;-49
2021/06/07 04:10:59;;;;;;;4.07;2.45;;;;;;;;;;5096881;28;20052;-52
2021/06/07 04:13:28;;;;;;;6.25;2.30;;;;;;;;;;5082841;28;20050;-53
2021/06/07 04:15:54;;;;;;;3.38;2.05;;;;;;;;;;5097140;28;20044;-48
2021/06/07 04:18:22;;;;;;;5.35;2.08;;;;;;;;;;5084167;28;20063;-53
2021/06/07 04:20:47;;;;;;;8.07;2.10;;;;;;;;;;5062204;28;20040;-52
2021/06/07 04:23:13;;;;;;;5.05;2.05;;;;;;;;;;5097352;28;20040;-48
2021/06/07 04:25:39;;;;;;;4.90;2.42;;;;;;;;;;5095814;28;20041;-55
2021/06/07 04:28:06;;;;;;;9.93;2.47;;;;;;;;;;5099551;28;20049;-57
2021/06/07 04:30:33;;;;;;;3.25;1.90;;;;;;;;;;5064344;28;20051;-53
2021/06/07 04:33:00;;;;;;;5.17;2.53;;;;;;;;;;5102624;28;20050;-55
2021/06/07 04:35:26;;;;;;;5.75;2.22;;;;;;;;;;5097372;28;20281;-57
2021/06/07 04:37:54;;;;;;;5.40;1.90;;;;;;;;;;5064736;28;20048;-51
2021/06/07 04:40:21;;;;;;;4.28;1.95;;;;;;;;;;5060990;28;20061;-52
2021/06/07 04:42:47;;;;;;;7.00;2.00;;;;;;;;;;5064266;28;20053;-54
2021/06/07 04:45:13;;;;;;;4.18;1.80;;;;;;;;;;5078807;28;20033;-51
2021/06/07 04:47:41;;;;;;;5.50;1.95;;;;;;;;;;5080816;28;20053;-50
2021/06/07 04:50:08;;;;;;;4.27;1.80;;;;;;;;;;5059574;28;20057;-58
2021/06/07 04:52:34;;;;;;;4.10;2.13;;;;;;;;;;5055507;28;20064;-52
2021/06/07 04:55:00;;;;;;;2.58;1.58;;;;;;;;;;5065956;28;20052;-52
2021/06/07 04:57:27;;;;;;;9.30;1.95;;;;;;;;;;5060986;28;20047;-52
2021/06/07 04:59:52;;;;;;;3.40;1.80;;;;;;;;;;5063348;28;20044;-53
2021/06/07 05:02:18;;;;;;;6.25;1.70;;;;;;;;;;5059718;28;20114;-55
2021/06/07 05:04:46;;;;;;;5.22;1.80;;;;;;;;;;5064120;28;20055;-53
2021/06/07 05:07:12;;;;;;;2.85;1.45;;;;;;;;;;5055448;28;20044;-55
2021/06/07 05:09:38;;;;;;;5.30;1.75;;;;;;;;;;5063510;28;20052;-48
2021/06/07 05:12:05;;;;;;;3.83;1.65;;;;;;;;;;5059757;28;20040;-50
2021/06/07 05:14:31;;;;;;;7.43;1.92;;;;;;;;;;5067947;28;20041;-49
2021/06/07 05:16:58;;;;;;;7.30;1.80;;;;;;;;;;5061093;28;20041;-50
2021/06/07 05:19:24;;;;;;;4.88;1.67;;;;;;;;;;5062013;28;20068;-56
2021/06/07 05:21:52;;;;;;;5.85;1.75;;;;;;;;;;5060782;28;20033;-53
2021/06/07 05:24:18;;;;;;;5.07;1.40;;;;;;;;;;5064250;28;20059;-51
2021/06/07 05:26:44;;;;;;;6.55;1.55;;;;;;;;;;5059754;28;20045;-53
2021/06/07 05:29:10;;;;;;;4.57;1.83;;;;;;;;;;5063684;28;20081;-54
2021/06/07 05:31:37;;;;;;;3.15;1.50;;;;;;;;;;5060308;28;20051;-53
2021/06/07 05:34:03;;;;;;;2.70;1.58;;;;;;;;;;5064520;28;20040;-53
2021/06/07 05:36:29;;;;;;;4.07;1.45;;;;;;;;;;5063441;28;20037;-51
2021/06/07 05:38:57;;;;;;;5.10;1.70;;;;;;;;;;5057531;28;20115;-52
2021/06/07 05:41:23;;;;;;;4.03;1.48;;;;;;;;;;5060030;28;20033;-56
2021/06/07 05:43:52;;;;;;;5.10;1.50;;;;;;;;;;5058321;28;20040;-58
2021/06/07 05:46:18;;;;;;;3.35;1.30;;;;;;;;;;5060717;28;20063;-51
2021/06/07 05:48:44;;;;;;;8.18;1.13;;;;;;;;;;5058875;28;20097;-52
2021/06/07 05:51:10;;;;;;;1.55;1.02;;;;;;;;;;5061745;28;20277;-51
2021/06/07 05:53:37;;;;;;;5.30;1.52;;;;;;;;;;5058262;28;20040;-56
2021/06/07 05:56:05;;;;;;;2.92;1.20;;;;;;;;;;5059524;28;20130;-52
2021/06/07 05:58:34;;;;;;;4.72;1.42;;;;;;;;;;5046851;28;20119;-58
2021/06/07 06:01:02;;;;;;;2.08;0.88;;;;;;;;;;5044007;28;20126;-53
2021/06/07 06:03:30;;;;;;;2.33;1.00;;;;;;;;;;5062366;28;20079;-53
2021/06/07 06:05:55;;;;;;;3.70;0.98;;;;;;;;;;5064903;28;20040;-52
2021/06/07 06:08:22;;;;;;;1.80;0.80;;;;;;;;;;5062751;28;20036;-57
2021/06/07 06:10:48;;;;;;;2.63;1.08;;;;;;;;;;5065926;28;20032;-57
2021/06/07 06:13:15;;;;;;;2.72;0.70;;;;;;;;;;5060649;28;20099;-55
2021/06/07 06:15:41;;;;;;;1.48;0.80;;;;;;;;;;5078540;28;20036;-58
2021/06/07 06:18:07;;;;;;;6.43;0.70;;;;;;;;;;5064846;28;20049;-55
2021/06/07 06:20:34;;;;;;;1.23;0.90;;;;;;;;;;5061104;28;20130;-56
2021/06/07 06:23:00;;;;;;;1.30;0.85;;;;;;;;;;5079898;28;20056;-57
2021/06/07 06:25:26;;;;;;;1.42;0.70;;;;;;;;;;5059901;28;20055;-58
2021/06/07 06:27:53;;;;;;;2.70;0.88;;;;;;;;;;5079612;28;20029;-57
2021/06/07 06:30:23;;;;;;;3.35;1.05;;;;;;;;;;5060551;28;20037;-55
2021/06/07 06:32:50;;;;;;;2.75;0.80;;;;;;;;;;5063225;28;20052;-57
2021/06/07 06:35:17;;;;;;;2.90;0.80;;;;;;;;;;5076318;28;20048;-50
2021/06/07 06:37:44;;;;;;;1.88;1.00;;;;;;;;;;5090378;28;20040;-58
2021/06/07 06:40:11;;;;;;;2.72;0.88;;;;;;;;;;5079980;28;20048;-58
2021/06/07 06:42:39;;;;;;;2.53;0.85;;;;;;;;;;5066032;28;20028;-55
2021/06/07 06:45:05;;;;;;;0.97;0.70;;;;;;;;;;5096219;28;20040;-54
2021/06/07 06:47:34;;;;;;;3.90;0.88;;;;;;;;;;5099278;28;20279;-52
2021/06/07 06:50:00;;;;;;;2.95;0.90;;;;;;;;;;5062557;28;20040;-58
2021/06/07 06:52:26;;;;;;;0.82;0.77;;;;;;;;;;5063602;28;20109;-56
2021/06/07 06:54:52;;;;;;;3.08;1.02;;;;;;;;;;5063152;28;20088;-56
2021/06/07 06:57:23;;;;;;;3.42;0.82;;;;;;;;;;5084382;28;20032;-54
2021/06/07 06:59:49;;;;;;;3.88;1.02;;;;;;;;;;5065815;28;20052;-56
2021/06/07 07:02:15;;;;;;;3.65;1.23;;;;;;;;;;5115251;27;20040;-53
2021/06/07 07:04:42;;;;;;;2.13;0.85;;;;;;;;;;5085421;28;20040;-56
2021/06/07 07:07:11;;;;;;;9.00;0.98;;;;;;;;;;5065936;28;20044;-56
2021/06/07 07:09:38;;;;;;;5.60;0.90;;;;;;;;;;5083773;28;20024;-51
2021/06/07 07:12:05;;;;;;;2.55;0.93;;;;;;;;;;5078553;28;20136;-52
2021/06/07 07:14:31;;;;;;;2.17;1.00;;;;;;;;;;5065488;28;20036;-55
2021/06/07 07:16:57;;;;;;;2.20;0.95;;;;;;;;;;5079024;28;20048;-56
2021/06/07 07:19:23;;;;;;;3.05;1.08;;;;;;;;;;5099960;28;20044;-57
2021/06/07 07:21:50;;;;;;;3.00;1.05;;;;;;;;;;5062415;28;20049;-48
2021/06/07 07:24:16;;;;;;;2.08;1.10;;;;;;;;;;5067262;28;20040;-53
2021/06/07 07:26:42;;;;;;;6.13;1.20;;;;;;;;;;5096852;28;20044;-57
2021/06/07 07:29:08;;;;;;;5.20;1.10;;;;;;;;;;5082688;28;20032;-57
2021/06/07 07:31:34;;;;;;;3.25;1.13;;;;;;;;;;5095353;28;20040;-56
2021/06/07 07:34:00;;;;;;;4.28;1.10;;;;;;;;;;5084140;28;20036;-51
2021/06/07 07:36:26;;;;;;;2.53;1.10;;;;;;;;;;5081009;28;20093;-54
2021/06/07 07:38:55;;;;;;;3.63;0.85;;;;;;;;;;5078968;28;20033;-54
2021/06/07 07:41:25;;;;;;;1.67;0.93;;;;;;;;;;5045907;28;20040;-53
2021/06/07 07:43:51;;;;;;;2.08;1.00;;;;;;;;;;5043124;28;20043;-56
2021/06/07 07:46:17;;;;;;;5.28;1.02;;;;;;;;;;5064624;28;20045;-57
2021/06/07 07:48:43;;;;;;;3.15;1.00;;;;;;;;;;5076589;28;20117;-55
2021/06/07 07:51:09;;;;;;;2.42;0.95;;;;;;;;;;5045517;28;20048;-54
2021/06/07 07:53:35;;;;;;;5.15;0.90;;;;;;;;;;5059095;28;20048;-58
2021/06/07 07:56:03;;;;;;;1.92;1.10;;;;;;;;;;5045037;28;20041;-57
2021/06/07 07:58:31;;;;;;;6.55;1.00;;;;;;;;;;5059111;28;20055;-54
2021/06/07 08:00:57;;;;;;;5.10;0.90;;;;;;;;;;5045484;28;20060;-56
2021/06/07 08:03:23;;;;;;;2.05;0.80;;;;;;;;;;5042573;28;20049;-56
2021/06/07 08:05:50;;;;;;;4.78;1.17;;;;;;;;;;5045244;28;20041;-55
2021/06/07 08:08:16;;;;;;;3.70;1.00;;;;;;;;;;5038628;28;20037;-54
2021/06/07 08:10:43;;;;;;;1.85;0.85;;;;;;;;;;5045029;28;20052;-57
2021/06/07 08:13:10;;;;;;;3.15;0.73;;;;;;;;;;5040143;28;20111;-53
2021/06/07 08:15:36;;;;;;;2.33;0.98;;;;;;;;;;5045151;28;20048;-52
2021/06/07 08:18:02;;;;;;;4.40;0.88;;;;;;;;;;5074379;28;20044;-56
2021/06/07 08:20:28;;;;;;;2.42;0.90;;;;;;;;;;5078361;28;20088;-52
2021/06/07 08:22:57;;;;;;;2.22;1.15;;;;;;;;;;5045383;28;20053;-57
2021/06/07 08:25:24;;;;;;;2.53;1.00;;;;;;;;;;5072710;28;20048;-54
2021/06/07 08:27:52;;;;;;;3.20;1.10;;;;;;;;;;5044362;28;20048;-55
2021/06/07 08:30:20;;;;;;;3.50;0.93;;;;;;;;;;5074080;28;20065;-56
2021/06/07 08:32:46;;;;;;;1.67;0.77;;;;;;;;;;5046284;28;20032;-56
2021/06/07 08:35:12;;;;;;;1.77;0.93;;;;;;;;;;5075138;28;20037;-53
2021/06/07 08:37:39;;;;;;;1.55;0.80;;;;;;;;;;5052125;28;20055;-54
2021/06/07 08:40:06;;;;;;;2.80;0.95;;;;;;;;;;5061147;28;20150;-54
2021/06/07 08:42:33;;;;;;;4.60;0.90;;;;;;;;;;5064453;28;20111;-55
2021/06/07 08:44:59;;;;;;;2.60;0.90;;;;;;;;;;5095678;28;20040;-55
2021/06/07 08:47:27;;;;;;;1.38;0.80;;;;;;;;;;5098694;28;20055;-58
2021/06/07 08:49:53;;;;;;;3.40;0.98;;;;;;;;;;5058075;28;20133;-55
2021/06/07 08:52:19;;;;;;;5.28;1.40;;;;;;;;;;5097000;28;20084;-52
2021/06/07 08:54:45;;;;;;;2.95;0.98;;;;;;;;;;5059771;28;20038;-55
2021/06/07 08:57:11;;;;;;;3.53;0.98;;;;;;;;;;5081768;28;20075;-55
2021/06/07 08:59:40;;;;;;;1.08;0.77;;;;;;;;;;5060336;28;20060;-54
2021/06/07 09:02:06;;;;;;;2.83;0.95;;;;;;;;;;5076779;28;20033;-53
2021/06/07 09:04:45;;;;;;;1.02;0.60;;;;;;;;;;5043332;28;20073;-55
2021/06/07 09:07:13;;;;;;;4.25;0.98;;;;;;;;;;5060923;28;20111;-58
2021/06/07 09:09:39;;;;;;;8.15;1.10;;;;;;;;;;5098392;28;20046;-57
2021/06/07 09:12:09;;;;;;;3.72;1.10;;;;;;;;;;5059979;28;20028;-56
2021/06/07 09:14:37;;;;;;;3.92;0.93;;;;;;;;;;5097875;28;20052;-55
2021/06/07 09:17:14;;;;;;;1.80;0.90;;;;;;;;;;5082110;28;20063;-54
2021/06/07 09:19:42;;;;;;;4.18;1.05;;;;;;;;;;5069069;28;20039;-57
2021/06/07 09:22:21;;;;;;;4.43;1.10;;;;;;;;;;5082768;28;20040;-57
2021/06/07 09:25:02;;;;;;;5.38;1.15;;;;;;;;;;5086349;28;20048;-53
2021/06/07 09:27:28;;;;;;;2.55;1.05;;;;;;;;;;5081817;28;20055;-55
2021/06/07 09:29:54;;;;;;;2.85;0.80;;;;;;;;;;5101446;28;20048;-56
2021/06/07 09:32:24;;;;;;;4.40;0.98;;;;;;;;;;5062344;28;20044;-56
2021/06/07 09:35:05;;;;;;;1.80;0.90;;;;;;;;;;5066154;28;20033;-55
2021/06/07 09:37:33;;;;;;;7.85;1.23;;;;;;;;;;5060537;28;20045;-55
2021/06/07 09:40:14;;;;;;;6.07;1.10;;;;;;;;;;5067959;28;20053;-56
2021/06/07 09:42:53;;;;;;;5.00;0.98;;;;;;;;;;5052131;28;20039;-55
2021/06/07 09:45:33;;;;;;;2.50;0.90;;;;;;;;;;5081205;28;20065;-58
2021/06/07 09:48:08;;;;;;;1.73;0.82;;;;;;;;;;5048800;28;20130;-56
2021/06/07 09:50:35;;;;;;;2.55;0.95;;;;;;;;;;5062153;28;20045;-56
2021/06/07 09:53:01;;;;;;;1.02;0.80;;;;;;;;;;5061396;28;20041;-56
2021/06/07 09:55:27;;;;;;;2.33;0.80;;;;;;;;;;5056779;28;20161;-56
2021/06/07 09:57:56;;;;;;;2.58;0.90;;;;;;;;;;5059736;28;20045;-57
2021/06/07 10:00:33;;;;;;;2.20;0.95;;;;;;;;;;5062053;28;20029;-57
2021/06/07 10:03:12;;;;;;;2.33;0.90;;;;;;;;;;5061502;28;20059;-55
2021/06/07 10:05:40;;;;;;;3.38;0.85;;;;;;;;;;5063628;28;20055;-56
2021/06/07 10:08:06;;;;;;;5.18;0.82;;;;;;;;;;5061184;28;20052;-56
2021/06/07 10:10:32;;;;;;;3.05;1.00;;;;;;;;;;5097787;27;20044;-57
2021/06/07 10:13:03;;;;;;;2.70;1.00;;;;;;;;;;5076624;27;20094;-58
2021/06/07 10:15:33;;;;;;;5.85;0.95;;;;;;;;;;5079844;28;20041;-57
2021/06/07 10:18:00;;;;;;;3.60;1.10;;;;;;;;;;5076681;28;20052;-58
2021/06/07 10:23:11;;;;;;;2.05;0.82;;;;;;;;;;5059222;28;20063;-55
2021/06/07 10:25:38;;;;;;;3.90;0.80;;;;;;;;;;5063340;28;20056;-58
2021/06/07 10:28:04;;;;;;;3.45;1.10;;;;;;;;;;5060794;28;20045;-55
2021/06/07 10:30:37;;;;;;;1.08;0.80;;;;;;;;;;5061839;28;20037;-54
2021/06/07 10:33:22;;;;;;;6.35;0.90;;;;;;;;;;5078777;28;20059;-53
2021/06/07 10:35:48;;;;;;;2.90;0.80;;;;;;;;;;5063087;28;20047;-56
2021/06/07 10:38:27;;;;;;;8.52;0.93;;;;;;;;;;5053017;28;20098;-55
2021/06/07 10:41:13;;;;;;;3.63;0.98;;;;;;;;;;5043701;28;20044;-55
2021/06/07 10:43:42;;;;;;;1.40;0.80;;;;;;;;;;5042770;28;20052;-57
2021/06/07 10:46:19;;;;;;;3.33;1.00;;;;;;;;;;5044812;28;20044;-58
2021/06/07 10:48:50;;;;;;;3.42;1.00;;;;;;;;;;5046154;28;20048;-54
2021/06/07 10:51:16;;;;;;;3.70;0.90;;;;;;;;;;5061653;28;20063;-53
2021/06/07 10:53:43;;;;;;;4.00;0.98;;;;;;;;;;5080257;28;20045;-55
2021/06/07 10:56:10;;;;;;;2.20;1.08;;;;;;;;;;5043348;28;20044;-57
2021/06/07 10:58:49;;;;;;;2.10;0.90;;;;;;;;;;5081787;28;20037;-56
2021/06/07 11:01:15;;;;;;;5.50;0.70;;;;;;;;;;5043143;28;20055;-58
2021/06/07 11:03:52;;;;;;;3.08;1.08;;;;;;;;;;5047096;28;20076;-57
2021/06/07 11:06:18;;;;;;;2.45;0.95;;;;;;;;;;5076130;28;20071;-58
2021/06/07 11:09:00;;;;;;;2.95;1.02;;;;;;;;;;5043329;28;20081;-57
2021/06/07 11:11:40;;;;;;;2.13;0.82;;;;;;;;;;5055395;28;20117;-57
2021/06/07 11:14:07;;;;;;;4.97;1.00;;;;;;;;;;5078243;28;20040;-57
2021/06/07 11:16:34;;;;;;;2.35;0.75;;;;;;;;;;5041966;28;20041;-56
2021/06/07 11:19:01;;;;;;;1.35;0.90;;;;;;;;;;5079184;28;20040;-57
2021/06/07 11:21:28;;;;;;;3.15;1.10;;;;;;;;;;5042574;28;20048;-54
2021/06/07 11:23:56;;;;;;;2.72;1.25;;;;;;;;;;5078199;28;20049;-58
2021/06/07 11:26:33;;;;;;;4.18;0.93;;;;;;;;;;5058179;28;20036;-58
2021/06/07 11:29:05;;;;;;;2.05;0.82;;;;;;;;;;5075628;28;20051;-55
2021/06/07 11:31:41;;;;;;;3.95;1.30;;;;;;;;;;5040533;28;20052;-57
2021/06/07 11:34:09;;;;;;;3.65;1.10;;;;;;;;;;5045358;28;20041;-59
2021/06/07 11:36:42;;;;;;;4.95;1.33;;;;;;;;;;5038776;28;20119;-57
2021/06/07 11:39:10;;;;;;;3.85;1.05;;;;;;;;;;5022154;28;20037;-58
2021/06/07 11:41:36;;;;;;;;;;;;;;;;;;5033396;28;20051;-57
2021/06/07 11:44:02;;;;;;;6.47;0.98;;;;;;;;;;5077732;28;19912;-56
2021/06/07 11:46:46;;;;;;;2.22;0.75;;;;;;;;;;5043565;28;20059;-58
2021/06/07 11:49:15;;;;;;;3.03;1.00;;;;;;;;;;5043717;28;20040;-58
2021/06/07 11:51:42;;;;;;;2.38;0.90;;;;;;;;;;5041973;28;20151;-59
2021/06/07 11:54:23;;;;;;;3.17;0.90;;;;;;;;;;5064031;28;20094;-57
2021/06/07 11:56:52;;;;;;;7.00;1.10;;;;;;;;;;5041955;28;20068;-57
2021/06/07 11:59:22;;;;;;;2.15;0.93;;;;;;;;;;5075259;28;20041;-58
2021/06/07 12:01:48;;;;;;;1.52;0.80;;;;;;;;;;5055816;28;20110;-59
2021/06/07 12:04:22;;;;;;;3.58;0.90;;;;;;;;;;5047068;28;20036;-59
2021/06/07 12:06:48;;;;;;;3.92;0.90;;;;;;;;;;5078358;28;20036;-59
2021/06/07 12:09:15;;;;;;;2.95;0.80;;;;;;;;;;5059698;28;20056;-57
2021/06/07 12:11:41;;;;;;;3.13;1.10;;;;;;;;;;5045237;28;20043;-59
2021/06/07 12:14:08;;;;;;;6.13;0.93;;;;;;;;;;5053133;28;20048;-58
2021/06/07 12:16:37;;;;;;;3.93;0.90;;;;;;;;;;5061713;28;20036;-58
2021/06/07 12:19:09;;;;;;;1.75;0.90;;;;;;;;;;5046147;28;20041;-58
2021/06/07 12:21:35;;;;;;;3.30;1.02;;;;;;;;;;5065383;28;20033;-59
2021/06/07 12:24:04;;;;;;;1.33;0.80;;;;;;;;;;5046463;28;20056;-59
2021/06/07 12:29:24;;;;;;;7.25;1.10;;;;;;;;;;5040279;28;20111;-58
2021/06/07 12:32:03;;;;;;;1.55;0.88;;;;;;;;;;5044746;28;20044;-60
2021/06/07 12:34:29;;;;;;;6.47;1.10;;;;;;;;;;5040208;28;20036;-58
2021/06/07 12:36:55;;;;;;;2.55;1.00;;;;;;;;;;5066496;28;20039;-58
2021/06/07 12:39:21;;;;;;;1.48;0.85;;;;;;;;;;5069192;28;20051;-58
2021/06/07 12:41:47;;;;;;;3.33;1.00;;;;;;;;;;5069266;28;20045;-59
2021/06/07 12:44:13;;;;;;;2.08;0.80;;;;;;;;;;5051290;28;20043;-59
2021/06/07 12:46:47;;;;;;;2.45;1.05;;;;;;;;;;5064148;28;20040;-59
2021/06/07 12:49:21;;;;;;;8.82;1.10;;;;;;;;;;5058745;28;20047;-58
2021/06/07 12:51:55;;;;;;;3.45;1.20;;;;;;;;;;5084540;28;20029;-59
2021/06/07 12:54:21;;;;;;;3.80;0.90;;;;;;;;;;5082993;28;20040;-60
2021/06/07 12:56:49;;;;;;;1.38;0.73;;;;;;;;;;5068023;28;20051;-58
2021/06/07 12:59:15;;;;;;;3.03;1.08;;;;;;;;;;5064712;28;20039;-59
2021/06/07 13:01:45;;;;;;;2.13;0.90;;;;;;;;;;5101071;28;20153;-59
2021/06/07 13:04:13;;;;;;;6.88;1.05;;;;;;;;;;5062887;28;20040;-59
2021/06/07 13:06:43;;;;;;;1.98;0.82;;;;;;;;;;5085624;28;20062;-57
2021/06/07 13:09:11;;;;;;;1.55;0.93;;;;;;;;;;5066989;28;20032;-60
2021/06/07 13:11:40;;;;;;;3.00;0.70;;;;;;;;;;5081795;28;20088;-59
2021/06/07 13:14:09;;;;;;;1.50;0.77;;;;;;;;;;5066477;28;20048;-59
2021/06/07 13:16:35;;;;;;;;;;;;;;;;;;5097813;28;20094;-58
2021/06/07 13:19:04;;;;;;;2.78;0.90;;;;;;;;;;5082188;28;19909;-59
2021/06/07 13:21:38;;;;;;;5.50;0.93;;;;;;;;;;5064036;28;20029;-59
2021/06/07 13:24:04;;;;;;;2.67;1.10;;;;;;;;;;5054860;28;20041;-60
2021/06/07 13:26:32;;;;;;;3.83;1.10;;;;;;;;;;5059359;28;20044;-60
2021/06/07 13:29:23;;;;;;;3.95;0.70;;;;;;;;;;5081401;28;20061;-60
2021/06/07 13:31:52;;;;;;;5.15;0.95;;;;;;;;;;5057842;28;20036;-60
2021/06/07 13:34:20;;;;;;;4.43;0.90;;;;;;;;;;5065565;28;20052;-59
2021/06/07 13:36:47;;;;;;;1.42;0.70;;;;;;;;;;5055333;28;20040;-59
2021/06/07 13:39:15;;;;;;;2.20;0.77;;;;;;;;;;5085000;27;20140;-60
2021/06/07 13:41:52;;;;;;;3.08;1.10;;;;;;;;;;5064960;28;20036;-58
2021/06/07 13:44:20;;;;;;;1.77;1.00;;;;;;;;;;5086419;28;20045;-58
2021/06/07 13:46:46;;;;;;;1.83;0.80;;;;;;;;;;5064073;28;20072;-59
2021/06/07 13:49:13;;;;;;;2.95;0.85;;;;;;;;;;5066790;28;20036;-59
2021/06/07 13:51:39;;;;;;;4.15;0.95;;;;;;;;;;5094483;28;20040;-58
2021/06/07 13:54:08;;;;;;;4.90;1.30;;;;;;;;;;5099711;28;20055;-58
2021/06/07 13:56:35;;;;;;;2.20;0.80;;;;;;;;;;5096764;28;20044;-58
2021/06/07 13:59:02;;;;;;;5.03;0.85;;;;;;;;;;5100558;28;20044;-58
2021/06/07 14:01:34;;;;;;;1.95;0.98;;;;;;;;;;5097865;28;20048;-57
2021/06/07 14:04:00;;;;;;;5.10;0.88;;;;;;;;;;5066800;28;20044;-57
2021/06/07 14:06:26;;;;;;;2.70;0.90;;;;;;;;;;5065848;28;20093;-58
2021/06/07 14:08:53;;;;;;;2.00;0.93;;;;;;;;;;5062842;28;20032;-57
2021/06/07 14:11:23;;;;;;;1.40;0.90;;;;;;;;;;5065477;28;20109;-58
2021/06/07 14:13:50;;;;;;;7.40;1.30;;;;;;;;;;5071021;27;20068;-58
2021/06/07 14:16:17;;;;;;;3.38;1.30;;;;;;;;;;5082712;27;20036;-58
2021/06/07 14:18:43;;;;;;;4.68;1.05;;;;;;;;;;5070367;28;20040;-58
2021/06/07 14:21:15;;;;;;;1.88;0.80;;;;;;;;;;5084104;28;20036;-58
2021/06/07 14:26:27;;;;;;;2.60;1.20;;;;;;;;;;5066330;28;20032;-58
2021/06/07 14:28:53;;;;;;;3.13;1.02;;;;;;;;;;5080831;28;20052;-58
2021/06/07 14:31:20;;;;;;;3.10;1.00;;;;;;;;;;5066443;28;20033;-58
2021/06/07 14:33:46;;;;;;;3.05;1.15;;;;;;;;;;5081779;28;20048;-58
2021/06/07 14:36:15;;;;;;;2.00;1.00;;;;;;;;;;5066660;28;20044;-58
2021/06/07 14:38:41;;;;;;;2.35;0.95;;;;;;;;;;5079143;28;20089;-59
2021/06/07 14:41:09;;;;;;;2.40;0.90;;;;;;;;;;5079045;28;20056;-58
2021/06/07 14:43:37;;;;;;;1.88;0.88;;;;;;;;;;5042741;28;20041;-58
2021/06/07 14:46:03;;;;;;;3.58;1.00;;;;;;;;;;5063803;28;20036;-58
2021/06/07 14:48:30;;;;;;;2.15;0.80;;;;;;;;;;5043602;28;20033;-59
2021/06/07 14:50:56;;;;;;;2.05;1.00;;;;;;;;;;5062210;28;20040;-59
2021/06/07 14:53:23;;;;;;;3.45;1.17;;;;;;;;;;5060125;28;20041;-59
2021/06/07 14:55:49;;;;;;;5.25;1.10;;;;;;;;;;5063397;28;20048;-58